Kingsbury, United Kingdom
Current Conditions -  °F | °C
As of 10:20 AM on Thursday 18 Dec 2014 (Local Time) from EGBB Reporting Station
Broken Clouds Broken Clouds  
Wind Chill: 14°   Ceiling: 2100
Heat Index: 14°   Visibility: 6mi
Dew Point: 10°   Wind: 17mph
Humidity: 77%   Direction: 240°WSW
Pressure: 29.71"   Gusts: 31mph
Location:  52.56°N, 1.68°W
Report Text: EGBB 181020Z 24015G27KT 200V280 9999 BKN021 14/10 Q1006
Loading
Personal Weather Stations






























Interactive Weather Map New forecast layout! Learn more

10-Day Weather Forecast

Advertisements
Track Severe Weather on mobile